Renderfarm Status:OK
Avg Time Per Frame:141.1 min/frame
Total Users Today:2
Total CPU Time Today:451.58 Hours
Total Frames Waiting:0
Today's CPU Champion:bodlai20 / 11 days 15 hr
Active Jobs
Job User Frames Renderer Total CPU Average Start End Status
55228 bodlai20 3 arnold 3.06 Hours 183.4 min 12/13 03:39 PM Rendering
Completed Jobs
Job User Frames Renderer Total CPU Average Start End Speedup Status
55227 pnaser20 100 arnold 172.28 Hours 103.4 min 12/13 09:28 AM 12/13 03:51 PM 27x Complete!
55226 bodlai20 91 arnold 276.25 Hours 182.1 min 12/13 12:16 AM 12/13 01:45 PM 20.5x Complete!
55225 jnorth20 41 arnold 0.51 Hours 0.8 min 12/12 04:55 PM 12/12 10:10 PM 0.1x Complete!
55224 bodlai20 100 arnold 280.8 Hours 168.5 min 12/12 03:22 PM 12/12 11:58 PM 32.6x Complete!
55223 bodlai20 100 arnold 0 Hours 0 min 12/12 03:20 PM 12/12 03:21 PM 0x Complete!
55222 jcutre20 100 arnold 3.91 Hours 2.3 min 12/12 12:57 PM 12/12 01:01 PM 58.9x Complete!
55221 jcutre20 100 arnold 3.98 Hours 2.4 min 12/12 12:03 PM 12/12 12:07 PM 54.9x Complete!
55220 jcutre20 100 arnold 0.23 Hours 0.1 min 12/12 11:59 AM 12/12 12:01 PM 7.7x Complete!
55219 pnaser20 100 arnold 164.78 Hours 98.9 min 12/12 09:09 AM 12/12 01:07 PM 41.6x Complete!
55218 jcutre20 15 arnold 0.73 Hours 2.9 min 12/11 10:42 PM 12/11 10:45 PM 12.9x Complete!
55217 yuchen24 1 houdini 0.25 Hours 14.8 min 12/11 10:37 PM 12/11 10:52 PM 1x Complete!
55216 jcutre20 15 arnold 0.83 Hours 3.3 min 12/11 10:28 PM 12/11 10:32 PM 13x Complete!
55215 jcutre20 100 arnold 3.48 Hours 2.1 min 12/11 09:29 PM 12/11 09:43 PM 14.6x Complete!
55214 pnaser20 100 arnold 190.95 Hours 114.6 min 12/11 09:18 PM 12/12 12:43 AM 55.7x Complete!
55213 yuchen24 3 houdini 0.21 Hours 4.2 min 12/11 08:17 PM 12/11 08:22 PM 2.4x Complete!
55212 pnaser20 100 arnold 192.1 Hours 115.3 min 12/11 04:25 PM 12/11 08:22 PM 48.8x Complete!
55211 pnaser20 100 arnold 57.82 Hours 34.7 min 12/11 02:47 PM 12/11 04:23 PM 35.9x Complete!
55210 chulee23 3 arnold 1.28 Hours 25.6 min 12/10 09:28 PM 12/10 09:55 PM 2.9x Complete!
55209 dgrzes20 3 houdini 0.79 Hours 15.7 min 12/10 05:30 PM 12/10 05:50 PM 2.4x Complete!
55208 jnorth20 2 arnold 4.1 Hours 123 min 12/10 04:47 PM 12/10 06:57 PM 1.9x Complete!
55207 dgrzes20 3 houdini 0.01 Hours 0.3 min 12/10 04:17 PM 12/10 04:17 PM 2.4x Complete!
55206 chulee23 1 arnold 0.57 Hours 34.2 min 12/10 03:32 PM 12/10 04:06 PM 1x Complete!
55205 yuchen24 100 houdini 44.93 Hours 27 min 12/10 03:03 PM 12/10 04:04 PM 44.3x Complete!
55204 chulee23 1 arnold 0.38 Hours 22.8 min 12/10 02:58 PM 12/10 03:20 PM 1x Complete!
55203 yuchen24 100 houdini 22.61 Hours 13.6 min 12/10 01:04 PM 12/10 01:32 PM 47.5x Complete!
55202 dgrzes20 3 houdini 0.68 Hours 13.6 min 12/10 02:13 AM 12/10 02:31 AM 2.3x Complete!
55201 jnorth20 36 arnold 79.81 Hours 133 min 12/09 10:22 PM 12/10 01:37 AM 24.6x Complete!
55200 dgrzes20 3 houdini 0 Hours 0 min 12/09 10:14 PM 12/10 02:12 AM 0x Complete!
55199 yuchen24 100 houdini 20.72 Hours 12.4 min 12/09 04:11 PM 12/09 04:34 PM 52.4x Complete!
55198 dgrzes20 3 houdini 0.91 Hours 18.2 min 12/09 02:57 PM 12/09 03:25 PM 2x Complete!
55197 yuchen24 100 houdini 44.23 Hours 26.5 min 12/09 12:44 PM 12/09 01:41 PM 46.5x Complete!
55196 dgrzes20 3 houdini 0.48 Hours 9.6 min 12/08 08:15 PM 12/08 11:08 PM 0.2x Complete!
55195 jnorth20 100 arnold 228.41 Hours 137 min 12/08 07:22 PM 12/09 02:00 AM 34.4x Complete!
55194 dgrzes20 72 houdini 18.89 Hours 15.7 min 12/08 06:40 PM 12/08 07:20 PM 28x Complete!
55193 sbaghe20 100 arnold 164.42 Hours 98.7 min 12/08 04:17 PM 12/08 07:49 PM 46.6x Complete!
55192 amerry20 100 htoa 8.87 Hours 5.3 min 12/08 04:14 PM 12/08 04:57 PM 12.2x Complete!
55191 amerry20 100 htoa 8.01 Hours 4.8 min 12/08 03:15 PM 12/08 04:08 PM 8.9x Complete!
55190 pnaser20 100 arnold 173.76 Hours 104.3 min 12/08 02:46 PM 12/08 06:24 PM 47.9x Complete!
55189 pnaser20 100 arnold 0 Hours 0 min 12/08 02:36 PM 12/08 02:44 PM 0x Complete!
55188 jelove20 100 arnold 103.01 Hours 61.8 min 12/08 02:36 PM 12/08 04:15 PM 62.7x Complete!
55187 jnorth20 100 arnold 259.53 Hours 155.7 min 12/08 11:42 AM 12/08 03:31 PM 68x Complete!
55186 dyawor20 6 arnold 0.1 Hours 1 min 12/08 11:37 AM 12/08 11:38 AM 4.2x Complete!
55185 dyawor20 100 arnold 3.16 Hours 1.9 min 12/08 11:12 AM 12/08 11:14 AM 77.3x Complete!
55184 jnorth20 100 arnold 0.17 Hours 0.1 min 12/08 10:48 AM 12/08 10:49 AM 18.7x Complete!
55183 dyawor20 100 arnold 3.1 Hours 1.9 min 12/08 10:48 AM 12/08 10:50 AM 74.5x Complete!
55182 dyawor20 100 arnold 2.75 Hours 1.6 min 12/08 10:02 AM 12/08 10:04 AM 64.6x Complete!
55181 jnorth20 100 arnold 0.1 Hours 0.1 min 12/08 02:50 AM 12/08 02:51 AM 10.3x Complete!
55180 qthomp20 95 arnold 11.26 Hours 7.1 min 12/07 08:27 PM 12/07 08:43 PM 43.8x Complete!
55179 pnaser20 100 arnold 176.03 Hours 105.6 min 12/07 06:01 PM 12/07 11:48 PM 30.5x Complete!
55178 mbadil21 1 rman 0.13 Hours 8.1 min 12/07 05:50 PM 12/07 05:58 PM 1x Complete!
Copyright 2014 Savannah College of Art and Design